Time;durP1;ratioP1;P1;durP2;ratioP2;P2;SDS_P1;SDS_P2;PMS_P1;PMS_P2;Temp;Humidity;BMP_temperature;BMP_pressure;BME280_temperature;BME280_humidity;BME280_pressure;Samples;Min_cycle;Max_cycle;Signal;HPM_P1;HPM_P2
2022/05/22 00:02:09;;;;;;;6.03;2.60;;;11.80;99.90;;;;;;5055114;28;20111;-73
2022/05/22 00:04:35;;;;;;;3.10;2.15;;;11.80;99.90;;;;;;5054757;28;20018;-73
2022/05/22 00:07:02;;;;;;;2.75;2.33;;;11.90;99.90;;;;;;5054975;28;20497;-73
2022/05/22 00:09:28;;;;;;;2.72;2.53;;;11.90;99.90;;;;;;5054831;28;20021;-69
2022/05/22 00:11:55;;;;;;;5.03;2.50;;;11.90;99.90;;;;;;5053737;28;20020;-69
2022/05/22 00:14:21;;;;;;;4.20;2.70;;;11.90;99.90;;;;;;5053692;28;20025;-73
2022/05/22 00:16:47;;;;;;;2.97;2.70;;;11.90;99.90;;;;;;5053514;28;20538;-73
2022/05/22 00:19:16;;;;;;;5.15;3.05;;;11.90;99.90;;;;;;5054659;28;20052;-69
2022/05/22 00:21:42;;;;;;;3.75;2.30;;;11.90;99.90;;;;;;5053387;28;20037;-69
2022/05/22 00:24:10;;;;;;;3.47;2.40;;;11.90;99.90;;;;;;5054600;28;20093;-69
2022/05/22 00:26:36;;;;;;;4.25;2.30;;;11.90;99.90;;;;;;5055609;28;20031;-72
2022/05/22 00:29:02;;;;;;;3.08;2.60;;;12.00;99.90;;;;;;5074568;28;20462;-73
2022/05/22 00:31:28;;;;;;;3.75;2.50;;;12.00;99.90;;;;;;5064053;28;20029;-72
2022/05/22 00:33:54;;;;;;;2.63;2.40;;;11.90;99.90;;;;;;5054418;28;20109;-70
2022/05/22 00:36:19;;;;;;;2.90;2.17;;;11.90;99.90;;;;;;5054428;28;20035;-69
2022/05/22 00:38:45;;;;;;;4.25;2.67;;;11.90;99.90;;;;;;5053036;28;20029;-73
2022/05/22 00:41:12;;;;;;;3.67;2.53;;;11.90;99.90;;;;;;5054222;28;20033;-69
2022/05/22 00:43:40;;;;;;;3.15;2.40;;;11.80;99.90;;;;;;5054317;28;20049;-69
2022/05/22 00:46:08;;;;;;;3.45;2.67;;;11.80;99.90;;;;;;5052800;28;20107;-73
2022/05/22 00:48:35;;;;;;;2.97;2.60;;;11.80;99.90;;;;;;5054101;28;20021;-73
2022/05/22 00:51:26;;;;;;;5.80;2.45;;;11.80;99.90;;;;;;5054090;28;20108;-72
2022/05/22 00:53:56;;;;;;;3.30;2.08;;;11.80;99.90;;;;;;5050549;28;20037;-69
2022/05/22 00:56:27;;;;;;;5.35;2.60;;;11.80;99.90;;;;;;5054023;28;20023;-69
2022/05/22 00:58:55;;;;;;;5.03;1.83;;;11.80;99.90;;;;;;5054097;28;20020;-69
2022/05/22 01:01:21;;;;;;;4.03;2.40;;;11.80;99.90;;;;;;5053869;28;20482;-73
2022/05/22 01:03:47;;;;;;;3.10;2.70;;;11.80;99.90;;;;;;5053872;28;20028;-69
2022/05/22 01:06:20;;;;;;;5.63;2.63;;;11.80;99.90;;;;;;5052421;28;20116;-69
2022/05/22 01:08:47;;;;;;;3.47;2.17;;;11.80;99.90;;;;;;5053806;28;20036;-73
2022/05/22 01:11:29;;;;;;;5.57;2.47;;;11.80;99.90;;;;;;5052449;28;20053;-70
2022/05/22 01:14:14;;;;;;;6.18;2.63;;;11.80;99.90;;;;;;5053606;28;20025;-69
2022/05/22 01:16:40;;;;;;;2.90;2.67;;;11.90;99.90;;;;;;5053370;28;20028;-73
2022/05/22 01:19:15;;;;;;;3.08;2.30;;;11.90;99.90;;;;;;5053542;28;20056;-73
2022/05/22 01:21:47;;;;;;;3.78;2.28;;;11.90;99.90;;;;;;5052325;28;20399;-72
2022/05/22 01:24:13;;;;;;;3.92;1.85;;;11.90;99.90;;;;;;5053688;28;20025;-73
2022/05/22 01:26:38;;;;;;;4.40;2.45;;;11.90;99.90;;;;;;5054959;28;20163;-69
2022/05/22 01:29:04;;;;;;;3.47;2.88;;;11.90;99.90;;;;;;5073460;28;20025;-73
2022/05/22 01:31:30;;;;;;;2.35;2.15;;;11.80;99.90;;;;;;5062401;28;20021;-69
2022/05/22 01:33:55;;;;;;;3.60;2.78;;;11.70;99.90;;;;;;5053499;28;20025;-72
2022/05/22 01:36:21;;;;;;;3.08;2.15;;;11.70;99.90;;;;;;5053337;28;20025;-71
2022/05/22 01:38:46;;;;;;;3.67;2.10;;;11.60;99.90;;;;;;5053256;28;20043;-72
2022/05/22 01:41:12;;;;;;;2.72;2.20;;;11.60;99.90;;;;;;5053068;28;20098;-68
2022/05/22 01:43:37;;;;;;;3.90;2.25;;;11.60;99.90;;;;;;5053292;28;20028;-73
2022/05/22 01:46:03;;;;;;;3.33;2.08;;;11.50;99.90;;;;;;5053032;28;20040;-73
2022/05/22 01:48:29;;;;;;;4.35;2.55;;;11.50;99.90;;;;;;5053296;28;20044;-73
2022/05/22 01:50:55;;;;;;;6.80;2.67;;;11.40;99.90;;;;;;5051900;28;20025;-69
2022/05/22 01:53:23;;;;;;;4.40;3.05;;;11.40;99.90;;;;;;5053135;28;20022;-70
2022/05/22 01:55:50;;;;;;;3.63;2.70;;;11.30;99.90;;;;;;5051632;28;20139;-72
2022/05/22 01:58:16;;;;;;;2.22;1.98;;;11.30;99.90;;;;;;5051896;28;20025;-70
2022/05/22 02:00:42;;;;;;;2.83;2.63;;;11.30;99.90;;;;;;5052788;28;20032;-72
2022/05/22 02:03:07;;;;;;;3.80;2.80;;;11.20;99.90;;;;;;5051883;28;20028;-72
2022/05/22 02:05:34;;;;;;;3.05;2.85;;;11.10;99.90;;;;;;5052872;28;20050;-73
2022/05/22 02:10:44;;;;;;;4.72;2.30;;;11.00;99.90;;;;;;5052559;28;20391;-69
2022/05/22 02:13:11;;;;;;;4.00;2.58;;;11.00;99.90;;;;;;5052881;28;20013;-70
2022/05/22 02:15:36;;;;;;;5.22;3.05;;;10.90;99.90;;;;;;5052699;28;20048;-69
2022/05/22 02:18:02;;;;;;;4.72;2.75;;;10.80;99.90;;;;;;5053113;28;20028;-70
2022/05/22 02:20:28;;;;;;;2.83;2.55;;;10.80;99.90;;;;;;5052696;28;20132;-72
2022/05/22 02:22:56;;;;;;;3.20;2.88;;;10.70;99.90;;;;;;5052815;28;20035;-69
2022/05/22 02:25:25;;;;;;;3.25;3.00;;;10.60;99.90;;;;;;5052843;28;20048;-72
2022/05/22 02:27:51;;;;;;;9.02;4.10;;;10.60;99.90;;;;;;5064962;28;20021;-72
2022/05/22 02:30:20;;;;;;;3.88;3.22;;;10.60;99.90;;;;;;5071677;28;20050;-72
2022/05/22 02:32:46;;;;;;;5.68;3.55;;;10.50;99.90;;;;;;5051257;28;20536;-72
2022/05/22 02:35:13;;;;;;;3.88;3.47;;;10.40;99.90;;;;;;5052736;28;20029;-72
2022/05/22 02:37:47;;;;;;;6.28;3.40;;;10.40;99.90;;;;;;5054357;28;20025;-72
2022/05/22 02:40:15;;;;;;;4.30;3.90;;;10.30;99.90;;;;;;5056693;28;20036;-69
2022/05/22 02:42:43;;;;;;;5.47;3.65;;;10.30;99.90;;;;;;5056300;28;20029;-72
2022/05/22 02:45:09;;;;;;;5.20;4.18;;;10.20;99.90;;;;;;5055172;28;20028;-72
2022/05/22 02:47:35;;;;;;;4.40;3.60;;;10.20;99.90;;;;;;5056461;28;20421;-69
2022/05/22 02:50:01;;;;;;;9.07;4.18;;;10.10;99.90;;;;;;5056463;28;20111;-69
2022/05/22 02:52:26;;;;;;;4.10;3.22;;;10.00;99.90;;;;;;5055068;28;20078;-72
2022/05/22 02:54:52;;;;;;;5.68;4.28;;;10.10;99.90;;;;;;5056173;28;20036;-72
2022/05/22 02:57:21;;;;;;;6.90;4.43;;;10.10;99.90;;;;;;5056273;28;20029;-69
2022/05/22 02:59:51;;;;;;;7.28;5.28;;;10.00;99.90;;;;;;5056335;28;20025;-73
2022/05/22 03:02:17;;;;;;;8.05;5.40;;;9.90;99.90;;;;;;5056037;28;20033;-69
2022/05/22 03:04:43;;;;;;;7.22;6.07;;;9.90;99.90;;;;;;5054841;28;20434;-69
2022/05/22 03:07:11;;;;;;;12.05;6.03;;;9.90;99.90;;;;;;5054734;28;20029;-72
2022/05/22 03:09:38;;;;;;;10.27;6.82;;;9.90;99.90;;;;;;5056173;28;20025;-69
2022/05/22 03:12:14;;;;;;;10.68;6.93;;;9.90;99.90;;;;;;5056037;28;20029;-69
2022/05/22 03:14:44;;;;;;;12.43;6.80;;;9.90;99.90;;;;;;5056014;28;20100;-69
2022/05/22 03:17:10;;;;;;;13.77;7.35;;;10.00;99.90;;;;;;5054610;28;20449;-72
2022/05/22 03:19:36;;;;;;;10.80;6.53;;;10.00;99.90;;;;;;5055799;28;20124;-72
2022/05/22 03:22:02;;;;;;;10.52;7.28;;;10.10;99.90;;;;;;5055772;28;20033;-71
2022/05/22 03:24:28;;;;;;;9.32;7.88;;;10.10;99.90;;;;;;5055684;28;20021;-70
2022/05/22 03:26:54;;;;;;;10.05;7.07;;;10.20;99.90;;;;;;5060232;28;20024;-71
2022/05/22 03:29:19;;;;;;;8.90;6.47;;;10.30;99.90;;;;;;5075794;28;20063;-69
2022/05/22 03:31:45;;;;;;;10.65;6.55;;;10.30;99.90;;;;;;5061871;28;20021;-72
2022/05/22 03:34:10;;;;;;;14.40;7.40;;;10.40;99.90;;;;;;5055603;28;20021;-69
2022/05/22 03:36:39;;;;;;;8.98;6.78;;;10.60;99.90;;;;;;5055425;28;20017;-72
2022/05/22 03:39:06;;;;;;;11.02;6.35;;;10.80;99.90;;;;;;5054324;28;20033;-72
2022/05/22 03:41:32;;;;;;;9.27;6.53;;;10.90;99.90;;;;;;5055445;28;20398;-72
2022/05/22 03:43:58;;;;;;;11.20;6.80;;;10.90;99.90;;;;;;5055427;28;20481;-69
2022/05/22 03:46:23;;;;;;;10.80;6.60;;;11.10;99.90;;;;;;5054164;28;20028;-69
2022/05/22 03:48:49;;;;;;;7.85;6.28;;;11.10;99.90;;;;;;5055200;28;20029;-70
2022/05/22 03:51:14;;;;;;;9.30;6.28;;;11.30;99.90;;;;;;5055339;28;20048;-72
2022/05/22 03:53:40;;;;;;;10.30;6.72;;;11.40;99.90;;;;;;5055260;28;20062;-72
2022/05/22 03:56:14;;;;;;;6.38;5.65;;;11.50;99.90;;;;;;5053947;28;20032;-69
2022/05/22 03:58:40;;;;;;;6.90;6.13;;;11.50;99.90;;;;;;5055098;28;20025;-72
2022/05/22 04:01:09;;;;;;;9.68;5.68;;;11.70;99.90;;;;;;5055039;28;20493;-69
2022/05/22 04:03:35;;;;;;;7.10;5.45;;;11.80;99.90;;;;;;5053756;28;20036;-72
2022/05/22 04:06:05;;;;;;;6.07;4.95;;;11.80;99.90;;;;;;5054978;28;20025;-72
2022/05/22 04:08:31;;;;;;;8.60;5.30;;;11.90;99.90;;;;;;5054953;28;20036;-72
2022/05/22 04:11:04;;;;;;;7.35;5.30;;;11.90;99.90;;;;;;5055056;28;20028;-72
2022/05/22 04:13:29;;;;;;;8.23;5.20;;;11.90;99.90;;;;;;5055015;28;20020;-72
2022/05/22 04:15:55;;;;;;;11.25;5.57;;;12.00;99.90;;;;;;5053820;28;20524;-72
2022/05/22 04:18:20;;;;;;;7.82;4.57;;;12.00;99.90;;;;;;5054576;28;20021;-72
2022/05/22 04:20:46;;;;;;;10.20;5.75;;;12.00;99.90;;;;;;5054573;28;20069;-69
2022/05/22 04:25:58;;;;;;;8.52;5.28;;;12.00;99.90;;;;;;5054833;28;20533;-70
2022/05/22 04:28:25;;;;;;;9.70;4.85;;;12.10;99.90;;;;;;5072081;28;20021;-72
2022/05/22 04:30:52;;;;;;;5.53;4.60;;;12.10;99.90;;;;;;5066691;28;20032;-69
2022/05/22 04:33:17;;;;;;;5.22;4.60;;;12.10;99.90;;;;;;5054544;28;20104;-73
2022/05/22 04:35:43;;;;;;;10.35;4.57;;;12.20;99.90;;;;;;5053090;28;20052;-73
2022/05/22 04:38:10;;;;;;;6.95;4.53;;;12.10;99.90;;;;;;5054436;28;20013;-73
2022/05/22 04:40:37;;;;;;;5.65;4.13;;;12.20;99.90;;;;;;5052852;28;20486;-69
2022/05/22 04:43:04;;;;;;;5.38;3.95;;;12.10;99.90;;;;;;5054374;28;20101;-70
2022/05/22 04:45:30;;;;;;;10.95;4.50;;;12.10;99.90;;;;;;5054070;28;20454;-69
2022/05/22 04:47:56;;;;;;;9.55;4.68;;;12.30;99.90;;;;;;5054276;28;20033;-70
2022/05/22 04:50:21;;;;;;;7.45;4.38;;;12.20;99.90;;;;;;5054312;28;20394;-72
2022/05/22 04:52:47;;;;;;;6.18;4.28;;;12.20;99.90;;;;;;5053922;28;20036;-72
2022/05/22 04:55:13;;;;;;;11.50;4.53;;;12.10;99.90;;;;;;5054038;28;20092;-69
2022/05/22 04:57:39;;;;;;;6.30;3.60;;;12.10;99.90;;;;;;5052689;28;20028;-72
2022/05/22 05:00:06;;;;;;;4.78;3.40;;;12.10;99.90;;;;;;5053560;28;20021;-72
2022/05/22 05:02:32;;;;;;;5.65;3.00;;;12.30;99.90;;;;;;5052544;28;20039;-72
2022/05/22 05:04:58;;;;;;;4.78;2.58;;;12.30;99.90;;;;;;5046019;28;20025;-73
2022/05/22 05:07:24;;;;;;;5.18;2.75;;;12.50;98.50;;;;;;5043207;28;20072;-69
2022/05/22 05:09:50;;;;;;;4.90;3.05;;;12.60;94.10;;;;;;5042522;28;20414;-70
2022/05/22 05:12:16;;;;;;;7.10;3.63;;;12.50;94.10;;;;;;5042722;28;20045;-70
2022/05/22 05:14:42;;;;;;;4.80;3.20;;;12.60;94.60;;;;;;5038419;28;20076;-70
2022/05/22 05:17:10;;;;;;;3.85;2.83;;;12.50;93.70;;;;;;5033722;28;20079;-72
2022/05/22 05:19:36;;;;;;;6.00;2.95;;;12.50;91.70;;;;;;5033381;28;20057;-70
2022/05/22 05:22:01;;;;;;;5.40;2.55;;;12.60;91.60;;;;;;5040547;28;20080;-72
2022/05/22 05:24:28;;;;;;;3.88;2.25;;;12.60;90.70;;;;;;5041922;28;20509;-72
2022/05/22 05:26:55;;;;;;;6.90;2.40;;;12.70;90.80;;;;;;5043913;28;20436;-69
2022/05/22 05:29:21;;;;;;;4.65;2.88;;;12.70;89.30;;;;;;5073373;28;20028;-70
2022/05/22 05:31:47;;;;;;;8.23;2.50;;;12.70;85.90;;;;;;5058969;28;20391;-72
2022/05/22 05:34:13;;;;;;;4.50;2.53;;;12.80;84.50;;;;;;5053194;28;20025;-72
2022/05/22 05:36:39;;;;;;;4.35;2.30;;;12.90;82.50;;;;;;5053332;28;20091;-72
2022/05/22 05:39:05;;;;;;;6.30;2.17;;;13.00;81.50;;;;;;5046465;28;20049;-70
2022/05/22 05:41:31;;;;;;;4.43;2.50;;;13.10;80.20;;;;;;5043736;28;20037;-72
2022/05/22 05:43:56;;;;;;;3.85;2.78;;;13.20;80.10;;;;;;5042036;28;20536;-73
2022/05/22 05:46:22;;;;;;;6.40;2.35;;;13.20;79.50;;;;;;5042327;28;20078;-72
2022/05/22 05:48:48;;;;;;;9.40;2.30;;;13.10;79.10;;;;;;5041998;28;20100;-72
2022/05/22 05:51:14;;;;;;;5.35;2.55;;;13.00;78.70;;;;;;5042427;28;20021;-72
2022/05/22 05:53:40;;;;;;;7.15;2.45;;;12.90;79.30;;;;;;5040869;28;20463;-69
2022/05/22 05:56:07;;;;;;;7.03;2.10;;;12.80;79.00;;;;;;5033103;28;20036;-73
2022/05/22 05:58:32;;;;;;;4.38;2.20;;;13.00;79.40;;;;;;5033032;28;20017;-69
2022/05/22 06:00:58;;;;;;;3.83;2.60;;;12.80;78.40;;;;;;5032803;28;20136;-69
2022/05/22 06:03:23;;;;;;;5.95;2.05;;;13.00;78.90;;;;;;5033005;28;20023;-70
2022/05/22 06:05:49;;;;;;;6.05;2.40;;;13.00;79.70;;;;;;5031553;28;20475;-69
2022/05/22 06:08:15;;;;;;;8.40;2.38;;;13.30;78.90;;;;;;5032950;28;20104;-71
2022/05/22 06:10:40;;;;;;;7.75;3.35;;;13.50;78.80;;;;;;5032695;28;20197;-69
2022/05/22 06:13:08;;;;;;;4.95;1.92;;;13.70;75.80;;;;;;5034171;28;20029;-70
2022/05/22 06:15:34;;;;;;;5.05;1.75;;;13.90;73.40;;;;;;5036837;28;20464;-70
2022/05/22 06:17:59;;;;;;;5.95;2.15;;;13.90;72.80;;;;;;5036890;28;20033;-70
2022/05/22 06:20:25;;;;;;;8.95;2.35;;;13.90;70.80;;;;;;5036707;28;20138;-69
2022/05/22 06:22:50;;;;;;;6.50;2.17;;;13.80;71.00;;;;;;5036786;28;20025;-69
2022/05/22 06:25:17;;;;;;;4.70;2.22;;;14.00;70.90;;;;;;5036680;28;20075;-70
2022/05/22 06:27:43;;;;;;;7.53;1.95;;;14.00;70.80;;;;;;5061544;28;20029;-69
2022/05/22 06:30:12;;;;;;;4.40;2.00;;;13.80;70.40;;;;;;5075249;28;20008;-69
2022/05/22 06:32:41;;;;;;;3.17;2.28;;;13.60;71.20;;;;;;5056456;28;20036;-70
2022/05/22 06:35:09;;;;;;;4.57;1.70;;;13.60;72.40;;;;;;5056462;28;20122;-73
2022/05/22 06:37:36;;;;;;;2.67;2.28;;;13.50;72.50;;;;;;5055201;28;20167;-69
2022/05/22 06:40:02;;;;;;;3.35;1.65;;;13.40;73.10;;;;;;5056419;28;20087;-69
2022/05/22 06:42:29;;;;;;;3.17;1.63;;;13.10;71.90;;;;;;5055075;28;20039;-69
2022/05/22 06:44:59;;;;;;;7.35;1.77;;;13.30;72.10;;;;;;5056207;28;20107;-69
2022/05/22 06:47:27;;;;;;;5.15;2.00;;;13.20;72.00;;;;;;5055695;28;20021;-72
2022/05/22 06:49:53;;;;;;;5.60;2.22;;;13.10;72.10;;;;;;5049337;28;20025;-73
2022/05/22 06:52:19;;;;;;;4.13;1.65;;;13.40;70.80;;;;;;5044661;28;20038;-73
2022/05/22 06:54:45;;;;;;;10.48;2.42;;;13.70;68.70;;;;;;5044763;28;20017;-73
2022/05/22 06:57:13;;;;;;;1.83;1.38;;;14.00;67.50;;;;;;5043968;28;20075;-73
2022/05/22 06:59:38;;;;;;;3.47;1.83;;;14.10;65.60;;;;;;5041375;28;20092;-74
2022/05/22 07:02:04;;;;;;;3.65;1.60;;;14.20;65.80;;;;;;5046524;28;20117;-73
2022/05/22 07:04:30;;;;;;;4.47;1.77;;;14.10;65.40;;;;;;5043281;28;20022;-73
2022/05/22 07:06:56;;;;;;;4.63;1.60;;;14.20;66.00;;;;;;5045666;28;20025;-73
2022/05/22 07:09:21;;;;;;;5.30;2.15;;;14.10;65.60;;;;;;5046117;28;20014;-73
2022/05/22 07:11:49;;;;;;;3.25;1.70;;;14.10;66.90;;;;;;5043046;28;20025;-73
2022/05/22 07:14:14;;;;;;;3.05;1.55;;;14.00;68.20;;;;;;5045812;28;20088;-73
2022/05/22 07:16:40;;;;;;;3.80;1.73;;;13.60;64.50;;;;;;5045595;28;20113;-73
2022/05/22 07:19:09;;;;;;;5.57;2.38;;;14.00;65.70;;;;;;5043964;28;20094;-73
2022/05/22 07:21:34;;;;;;;5.65;1.58;;;14.20;65.50;;;;;;5043631;28;20474;-74
2022/05/22 07:24:00;;;;;;;3.58;1.27;;;14.20;63.10;;;;;;5038397;28;20029;-71
2022/05/22 07:26:29;;;;;;;2.85;2.20;;;14.50;64.00;;;;;;5039853;28;20040;-69
2022/05/22 07:28:58;;;;;;;3.92;1.20;;;14.90;63.60;;;;;;5075812;28;20056;-73
2022/05/22 07:31:25;;;;;;;4.95;1.60;;;14.90;62.30;;;;;;5062285;28;20020;-73
2022/05/22 07:33:51;;;;;;;4.22;1.60;;;14.80;62.40;;;;;;5055567;28;20025;-73
2022/05/22 07:36:18;;;;;;;2.50;1.10;;;14.90;59.40;;;;;;5055459;28;20158;-73
2022/05/22 07:38:45;;;;;;;3.72;1.05;;;14.80;58.80;;;;;;5055578;28;20024;-70
2022/05/22 07:41:12;;;;;;;4.93;1.35;;;14.50;58.80;;;;;;5055149;28;20041;-70
2022/05/22 07:43:38;;;;;;;2.70;0.95;;;14.40;60.00;;;;;;5055477;28;20549;-73
2022/05/22 07:46:04;;;;;;;3.50;1.55;;;14.40;61.30;;;;;;5055232;28;20049;-69
2022/05/22 07:48:30;;;;;;;1.58;1.25;;;14.60;62.50;;;;;;5055287;28;20017;-70
2022/05/22 07:50:57;;;;;;;4.47;1.60;;;14.80;61.90;;;;;;5055176;28;20032;-71
2022/05/22 07:53:24;;;;;;;1.50;1.02;;;15.10;60.80;;;;;;5055272;28;20040;-70
2022/05/22 07:55:49;;;;;;;4.25;1.27;;;15.00;59.60;;;;;;5054908;28;20021;-69
2022/05/22 07:58:16;;;;;;;5.57;1.48;;;14.80;58.90;;;;;;5055152;28;20040;-73
2022/05/22 08:00:42;;;;;;;2.00;1.52;;;14.80;59.60;;;;;;5054875;28;20037;-73
2022/05/22 08:03:09;;;;;;;3.05;1.30;;;14.90;60.60;;;;;;5055043;28;20028;-71
2022/05/22 08:05:35;;;;;;;2.88;1.23;;;14.50;60.30;;;;;;5053479;28;20436;-69
2022/05/22 08:08:00;;;;;;;3.58;1.20;;;14.40;61.00;;;;;;5054380;28;20024;-69
2022/05/22 08:10:26;;;;;;;2.70;1.20;;;14.30;62.20;;;;;;5053195;28;20120;-73
2022/05/22 08:12:52;;;;;;;4.22;1.70;;;14.20;63.60;;;;;;5054754;28;20021;-71
2022/05/22 08:15:21;;;;;;;4.50;1.25;;;14.10;64.20;;;;;;5054797;28;20502;-71
2022/05/22 08:17:47;;;;;;;2.25;0.90;;;14.40;63.10;;;;;;5044586;28;20029;-69
2022/05/22 08:20:15;;;;;;;2.92;1.23;;;14.50;60.70;;;;;;5042565;28;20124;-73
2022/05/22 08:22:45;;;;;;;2.58;1.00;;;14.70;59.70;;;;;;5034630;28;20029;-73
2022/05/22 08:25:13;;;;;;;2.38;0.90;;;15.00;59.30;;;;;;5051578;28;20052;-73
2022/05/22 08:27:39;;;;;;;1.08;0.80;;;15.20;59.10;;;;;;5053864;28;20028;-73
2022/05/22 08:30:05;;;;;;;3.28;1.60;;;14.90;59.20;;;;;;5050136;28;20029;-73
2022/05/22 08:32:30;;;;;;;2.78;1.48;;;14.60;59.60;;;;;;5053736;28;20376;-73
2022/05/22 08:34:56;;;;;;;4.10;1.15;;;14.60;60.40;;;;;;5052530;28;20021;-73
2022/05/22 08:37:22;;;;;;;3.78;1.30;;;14.60;61.80;;;;;;5050277;28;20051;-69
2022/05/22 08:39:49;;;;;;;2.65;1.48;;;14.70;62.10;;;;;;5052303;28;20673;-73
2022/05/22 08:42:38;;;;;;;3.10;1.48;;;14.90;61.80;;;;;;5051718;28;20391;-70
2022/05/22 08:45:14;;;;;;;2.88;1.10;;;15.20;59.70;;;;;;5050216;28;20041;-73
2022/05/22 08:48:12;;;;;;;3.60;1.20;;;15.40;59.00;;;;;;5052757;28;20048;-75
2022/05/22 08:50:38;;;;;;;3.67;1.27;;;15.70;58.60;;;;;;5050534;28;20089;-73
2022/05/22 08:53:18;;;;;;;3.78;0.80;;;15.70;56.60;;;;;;5050706;28;20521;-73
2022/05/22 09:01:52;;;;;;;4.78;0.90;;;15.20;55.10;;;;;;5040225;28;20048;-73
2022/05/22 09:04:32;;;;;;;0.80;0.80;;;15.50;55.90;;;;;;5030477;28;20029;-73
2022/05/22 09:07:10;;;;;;;3.72;1.13;;;15.60;55.20;;;;;;5028904;28;20079;-72
2022/05/22 09:09:37;;;;;;;3.17;1.23;;;16.10;55.40;;;;;;5031826;28;20029;-69
2022/05/22 09:12:38;;;;;;;0.88;0.88;;;16.30;54.00;;;;;;5033922;28;20163;-73
2022/05/22 09:15:19;;;;;;;5.00;1.05;;;16.20;54.30;;;;;;5032726;28;20045;-70
2022/05/22 09:18:05;;;;;;;1.48;0.82;;;15.90;54.40;;;;;;5032973;28;20053;-70
2022/05/22 09:20:57;;;;;;;3.42;1.17;;;15.60;54.80;;;;;;5027981;28;20360;-69
2022/05/22 09:23:54;;;;;;;4.50;1.33;;;15.30;55.30;;;;;;5028602;28;20053;-73
2022/05/22 09:26:50;;;;;;;2.30;0.70;;;15.30;56.40;;;;;;5030936;28;20136;-73
2022/05/22 09:29:33;;;;;;;1.23;0.95;;;15.60;55.00;;;;;;5069786;28;20028;-70
2022/05/22 09:32:08;;;;;;;2.90;1.00;;;15.80;55.50;;;;;;5052336;28;20028;-72
2022/05/22 09:34:56;;;;;;;2.17;1.13;;;16.10;55.60;;;;;;5051521;28;20017;-73
2022/05/22 09:37:22;;;;;;;3.90;1.42;;;16.10;55.50;;;;;;5052775;28;20025;-69
2022/05/22 09:39:47;;;;;;;4.80;1.33;;;16.20;56.30;;;;;;5053389;28;20021;-73
2022/05/22 09:42:21;;;;;;;2.50;1.17;;;16.00;55.60;;;;;;5053321;28;20537;-69
2022/05/22 09:45:20;;;;;;;1.13;0.90;;;15.90;55.10;;;;;;5053284;28;20025;-73
2022/05/22 09:48:15;;;;;;;5.97;1.10;;;15.60;55.30;;;;;;5051821;28;20033;-69
2022/05/22 09:51:06;;;;;;;4.70;1.10;;;15.50;55.60;;;;;;5053378;28;20021;-70
2022/05/22 09:54:06;;;;;;;1.55;0.93;;;15.70;56.10;;;;;;5053175;28;20124;-69
2022/05/22 09:56:53;;;;;;;1.63;1.42;;;15.90;55.80;;;;;;5053303;28;20390;-69
2022/05/22 09:59:44;;;;;;;1.90;0.90;;;16.40;57.10;;;;;;5053173;28;20047;-70
2022/05/22 10:02:20;;;;;;;1.55;0.90;;;16.90;56.00;;;;;;5051272;28;20044;-70
2022/05/22 10:05:11;;;;;;;2.53;2.10;;;16.30;54.20;;;;;;5052949;28;20146;-73
2022/05/22 10:08:09;;;;;;;3.63;1.38;;;16.00;55.30;;;;;;5050159;28;20484;-73
2022/05/22 10:11:05;;;;;;;5.47;1.10;;;15.60;55.90;;;;;;5049341;28;20487;-69
2022/05/22 10:13:51;;;;;;;4.15;1.48;;;15.20;56.70;;;;;;5052999;28;20025;-69
2022/05/22 10:16:24;;;;;;;1.58;1.13;;;15.30;57.20;;;;;;5052886;28;20063;-73
2022/05/22 10:18:50;;;;;;;;;;;15.40;58.10;;;;;;5053188;28;20053;-69
2022/05/22 10:21:21;;;;;;;2.10;1.15;;;15.30;57.20;;;;;;5052945;28;19935;-73
2022/05/22 10:23:53;;;;;;;2.72;1.60;;;15.30;57.20;;;;;;5052713;28;20425;-73
2022/05/22 10:26:28;;;;;;;3.57;1.63;;;15.80;57.50;;;;;;5053568;28;20025;-70
2022/05/22 10:28:58;;;;;;;1.60;1.10;;;15.90;57.90;;;;;;5073119;28;20048;-73
2022/05/22 10:31:36;;;;;;;2.38;1.50;;;16.00;58.10;;;;;;5059914;28;20044;-73
2022/05/22 10:34:20;;;;;;;0.93;0.80;;;16.10;57.00;;;;;;5052840;28;20025;-70
2022/05/22 10:36:51;;;;;;;3.55;0.98;;;16.20;55.10;;;;;;5052771;28;20413;-73
2022/05/22 10:39:17;;;;;;;2.42;1.35;;;16.60;54.30;;;;;;5051442;28;20021;-73
2022/05/22 10:44:53;;;;;;;2.05;0.88;;;16.60;52.80;;;;;;5052892;28;20087;-70
2022/05/22 10:47:27;;;;;;;5.15;1.35;;;16.60;52.20;;;;;;5052677;28;20020;-73
2022/05/22 10:49:54;;;;;;;1.50;1.00;;;16.30;52.20;;;;;;5052584;28;20492;-70
2022/05/22 10:52:25;;;;;;;2.85;0.98;;;16.10;52.40;;;;;;5052666;28;20025;-73
2022/05/22 10:54:55;;;;;;;2.67;0.80;;;15.90;52.80;;;;;;5051221;28;20548;-73
2022/05/22 10:57:23;;;;;;;2.75;0.95;;;15.80;51.50;;;;;;5051375;28;20355;-70
2022/05/22 10:59:49;;;;;;;1.42;1.00;;;15.90;51.20;;;;;;5055843;28;20025;-73
2022/05/22 11:02:29;;;;;;;1.25;0.77;;;15.90;51.10;;;;;;5056249;28;20450;-73
2022/05/22 11:04:57;;;;;;;2.00;0.63;;;15.80;51.50;;;;;;5056401;28;20063;-73
2022/05/22 11:07:32;;;;;;;3.53;1.10;;;15.90;53.00;;;;;;5055153;28;20036;-70
2022/05/22 11:10:22;;;;;;;1.17;0.90;;;16.40;53.40;;;;;;5056202;28;20143;-69
2022/05/22 11:13:06;;;;;;;1.10;0.80;;;16.30;52.60;;;;;;5056349;28;20017;-73
2022/05/22 11:15:37;;;;;;;2.42;0.98;;;16.30;52.00;;;;;;5054646;28;20070;-73
2022/05/22 11:18:04;;;;;;;1.80;0.80;;;16.30;52.00;;;;;;5054881;28;20021;-70
2022/05/22 11:20:30;;;;;;;3.95;1.00;;;16.40;50.90;;;;;;5055805;28;20045;-73
2022/05/22 11:23:02;;;;;;;5.45;1.25;;;16.80;51.20;;;;;;5054771;28;20048;-72
2022/05/22 11:25:59;;;;;;;4.97;1.20;;;16.90;52.10;;;;;;5054511;28;20037;-70
2022/05/22 11:28:48;;;;;;;3.95;0.98;;;17.20;52.70;;;;;;5074419;28;20394;-69
2022/05/22 11:31:33;;;;;;;1.70;0.95;;;17.00;52.20;;;;;;5063870;28;20029;-69
2022/05/22 11:34:37;;;;;;;2.90;0.98;;;16.60;52.40;;;;;;5055461;28;20017;-69
2022/05/22 11:37:26;;;;;;;1.48;1.02;;;16.50;53.30;;;;;;5055777;28;20108;-69
2022/05/22 11:40:22;;;;;;;2.72;0.73;;;16.50;53.60;;;;;;5052870;28;20044;-70
2022/05/22 11:43:00;;;;;;;2.83;1.17;;;16.30;53.10;;;;;;5055621;28;20041;-73
2022/05/22 11:45:50;;;;;;;4.40;0.93;;;16.30;53.10;;;;;;5055457;28;20027;-69
2022/05/22 11:48:39;;;;;;;1.30;0.80;;;16.00;52.70;;;;;;5055493;28;20028;-73
2022/05/22 11:51:17;;;;;;;3.75;0.90;;;15.60;53.70;;;;;;5055411;28;20524;-73
2022/05/22 11:54:02;;;;;;;0.75;0.63;;;15.20;55.40;;;;;;5054003;28;20087;-73
2022/05/22 11:57:19;;;;;;;2.03;0.82;;;15.00;56.20;;;;;;5054130;28;20119;-72
2022/05/22 12:00:01;;;;;;;2.88;0.90;;;14.90;56.40;;;;;;5044414;28;20072;-72
2022/05/22 12:02:37;;;;;;;2.45;1.00;;;15.10;57.20;;;;;;5055217;28;20047;-69
2022/05/22 12:05:29;;;;;;;1.63;0.77;;;15.10;57.20;;;;;;5054345;28;20100;-73
2022/05/22 12:08:16;;;;;;;3.50;1.48;;;14.90;57.40;;;;;;5053855;28;20367;-73
2022/05/22 12:10:50;;;;;;;3.72;1.00;;;14.90;58.20;;;;;;5052508;28;20025;-73
2022/05/22 12:13:42;;;;;;;2.17;1.00;;;15.10;57.80;;;;;;5055062;28;20029;-72
2022/05/22 12:16:15;;;;;;;2.00;1.30;;;15.10;57.70;;;;;;5054828;28;20019;-69
2022/05/22 12:19:01;;;;;;;2.00;1.08;;;15.20;57.90;;;;;;5054854;28;20060;-73
2022/05/22 12:21:40;;;;;;;0.70;0.60;;;15.20;58.00;;;;;;5054766;28;20033;-69
2022/05/22 12:24:28;;;;;;;3.58;0.75;;;15.30;56.90;;;;;;5054847;28;20027;-73
2022/05/22 12:26:55;;;;;;;0.63;0.50;;;15.20;56.70;;;;;;5062483;28;20013;-69
2022/05/22 12:29:27;;;;;;;0.60;0.60;;;14.90;58.20;;;;;;5074762;28;20032;-73
2022/05/22 12:31:56;;;;;;;2.85;0.90;;;14.80;58.20;;;;;;5057088;28;20037;-71
2022/05/22 12:34:49;;;;;;;2.17;0.80;;;14.80;59.00;;;;;;5054576;28;20029;-72
2022/05/22 12:37:37;;;;;;;2.70;0.68;;;14.60;58.50;;;;;;5053355;28;20075;-69
2022/05/22 12:40:30;;;;;;;2.00;0.82;;;14.70;59.60;;;;;;5054564;28;20465;-73
2022/05/22 12:43:00;;;;;;;2.05;0.80;;;14.40;59.40;;;;;;5054664;28;20512;-69
2022/05/22 12:45:29;;;;;;;1.30;0.90;;;14.30;59.90;;;;;;5053386;28;20029;-69
2022/05/22 12:48:09;;;;;;;1.10;1.00;;;14.20;60.30;;;;;;5054224;28;20482;-72
2022/05/22 12:50:34;;;;;;;2.92;0.80;;;14.10;61.30;;;;;;5053084;28;20032;-72
2022/05/22 12:53:00;;;;;;;1.08;0.85;;;14.00;63.10;;;;;;5054247;28;20386;-70
2022/05/22 12:55:36;;;;;;;0.80;0.80;;;14.00;63.70;;;;;;5054091;28;20039;-69
2022/05/22 12:58:04;;;;;;;1.48;0.80;;;13.80;64.90;;;;;;5054303;28;20035;-69
2022/05/22 13:00:39;;;;;;;2.20;0.80;;;13.90;65.40;;;;;;5054148;28;20025;-70
2022/05/22 13:03:35;;;;;;;2.25;1.38;;;14.10;65.70;;;;;;5052872;28;20033;-72
2022/05/22 13:06:05;;;;;;;4.32;1.40;;;14.30;65.00;;;;;;5052478;28;20139;-69
2022/05/22 13:08:44;;;;;;;2.97;1.58;;;14.50;64.80;;;;;;5052777;28;20021;-69
2022/05/22 13:11:14;;;;;;;1.33;0.77;;;14.70;65.40;;;;;;5052600;28;20032;-69
2022/05/22 13:13:52;;;;;;;2.63;0.80;;;14.80;64.10;;;;;;5053862;28;20033;-72
2022/05/22 13:16:29;;;;;;;1.48;0.63;;;14.90;62.70;;;;;;5053725;28;20021;-70
2022/05/22 13:18:55;;;;;;;1.85;0.80;;;15.00;62.10;;;;;;5053883;28;20465;-69
2022/05/22 13:21:33;;;;;;;2.83;0.90;;;14.80;62.70;;;;;;5051925;28;20029;-69